Time;durP1;ratioP1;P1;durP2;ratioP2;P2;SDS_P1;SDS_P2;PMS_P1;PMS_P2;Temp;Humidity;BMP_temperature;BMP_pressure;BME280_temperature;BME280_humidity;BME280_pressure;Samples;Min_cycle;Max_cycle;Signal;HPM_P1;HPM_P2
2021/12/05 00:17:54;;;;;;;1.53;1.00;;;19.30;38.10;;;;;;4997699;28;20461;-62
2021/12/05 00:22:59;;;;;;;3.20;1.00;;;19.30;38.10;;;;;;4996241;28;20556;-62
2021/12/05 00:25:29;;;;;;;1.23;1.10;;;19.30;38.10;;;;;;5000985;28;20525;-62
2021/12/05 00:28:36;;;;;;;2.00;1.20;;;19.30;38.10;;;;;;4999155;28;20461;-62
2021/12/05 00:42:02;;;;;;;1.50;1.10;;;19.30;38.10;;;;;;5001857;28;20572;-65
2021/12/05 00:45:03;;;;;;;1.40;1.23;;;19.30;38.00;;;;;;4998785;28;20861;-64
2021/12/05 00:53:04;;;;;;;1.03;0.90;;;19.30;38.00;;;;;;5002514;28;20499;-64
2021/12/05 01:16:41;;;;;;;1.00;0.90;;;19.30;37.90;;;;;;4997106;28;20429;-63
2021/12/05 01:19:09;;;;;;;1.23;1.00;;;19.30;37.90;;;;;;4998477;28;21013;-64
2021/12/05 01:21:37;;;;;;;1.20;1.10;;;19.30;37.90;;;;;;4998611;28;20919;-62
2021/12/05 01:24:16;;;;;;;2.93;1.20;;;19.30;37.80;;;;;;5001471;28;20497;-64
2021/12/05 01:26:54;;;;;;;1.50;1.00;;;19.30;37.90;;;;;;4998328;28;20457;-63
2021/12/05 01:32:38;;;;;;;1.10;0.90;;;19.30;37.90;;;;;;4999073;28;20452;-63
2021/12/05 01:35:17;;;;;;;1.73;1.10;;;19.30;37.90;;;;;;5001939;28;20833;-64
2021/12/05 01:40:40;;;;;;;2.40;1.07;;;19.30;37.90;;;;;;4997367;28;20446;-63
2021/12/05 01:43:49;;;;;;;1.00;0.90;;;19.30;37.90;;;;;;5002832;28;21516;-62
2021/12/05 01:51:52;;;;;;;1.30;0.90;;;19.30;37.90;;;;;;4999859;28;20651;-62
2021/12/05 02:02:35;;;;;;;1.00;0.80;;;19.30;37.80;;;;;;4997273;28;20939;-62
2021/12/05 02:35:23;;;;;;;1.67;1.10;;;19.20;37.70;;;;;;4911792;29;20561;-63
2021/12/05 02:43:14;;;;;;;2.50;1.20;;;19.20;37.80;;;;;;4995573;28;20844;-62
2021/12/05 02:45:45;;;;;;;1.17;0.80;;;19.20;37.70;;;;;;5002508;28;20465;-63
2021/12/05 02:48:11;;;;;;;1.07;0.90;;;19.30;37.90;;;;;;5001794;28;20790;-62
2021/12/05 02:50:37;;;;;;;1.20;1.10;;;19.20;37.70;;;;;;5000279;28;20453;-62
2021/12/05 02:53:55;;;;;;;1.43;0.80;;;19.30;37.80;;;;;;5001785;28;20454;-62
2021/12/05 02:55:51;;;;;;;1.30;1.20;;;19.20;37.70;;;;;;4987562;28;20539;-62
2021/12/05 03:03:21;;;;;;;0.93;0.80;;;19.20;37.60;;;;;;5005702;28;20469;-63
2021/12/05 03:05:54;;;;;;;1.10;1.00;;;19.20;37.70;;;;;;5005454;28;20456;-62
2021/12/05 03:08:20;;;;;;;0.90;0.70;;;19.30;37.80;;;;;;5000740;28;20445;-62
2021/12/05 03:10:48;;;;;;;1.00;0.90;;;19.20;37.70;;;;;;5002038;28;20480;-62
2021/12/05 03:13:14;;;;;;;1.33;0.90;;;19.20;38.40;;;;;;5003231;28;20509;-62
2021/12/05 03:15:40;;;;;;;0.90;0.77;;;19.20;37.60;;;;;;5004571;28;20526;-63
2021/12/05 03:18:06;;;;;;;1.30;0.90;;;19.20;37.60;;;;;;5003195;28;20225;-63
2021/12/05 03:20:31;;;;;;;1.10;0.80;;;19.20;37.60;;;;;;5001508;28;20224;-66
2021/12/05 03:22:57;;;;;;;1.00;0.90;;;19.20;37.60;;;;;;5001223;28;20891;-66
2021/12/05 03:25:23;;;;;;;1.20;1.00;;;19.20;37.60;;;;;;4999647;28;20223;-65
2021/12/05 03:27:49;;;;;;;1.43;0.80;;;19.20;37.60;;;;;;5001842;28;20240;-65
2021/12/05 03:30:19;;;;;;;1.00;0.83;;;19.20;37.60;;;;;;5000263;28;20216;-65
2021/12/05 03:32:50;;;;;;;1.73;0.80;;;19.20;37.60;;;;;;5000108;28;20453;-65
2021/12/05 03:35:18;;;;;;;0.97;0.70;;;19.20;37.50;;;;;;5000978;28;20445;-64
2021/12/05 03:37:45;;;;;;;1.30;1.20;;;19.30;37.60;;;;;;5002567;28;20461;-65
2021/12/05 03:40:11;;;;;;;1.57;1.17;;;19.20;37.60;;;;;;5000786;28;21009;-65
2021/12/05 03:42:37;;;;;;;1.00;0.83;;;19.20;37.50;;;;;;5001527;28;20967;-65
2021/12/05 03:45:07;;;;;;;1.20;0.77;;;19.20;37.50;;;;;;5002665;28;20446;-66
2021/12/05 03:47:32;;;;;;;2.10;1.00;;;19.30;37.60;;;;;;5003742;28;20228;-65
2021/12/05 03:49:58;;;;;;;0.90;0.80;;;19.30;37.60;;;;;;5000826;28;20986;-65
2021/12/05 03:52:24;;;;;;;2.33;1.00;;;19.20;37.50;;;;;;4999337;28;20220;-65
2021/12/05 03:54:50;;;;;;;1.60;0.80;;;19.30;37.60;;;;;;5002713;28;20260;-66
2021/12/05 03:57:17;;;;;;;0.93;0.80;;;19.20;37.40;;;;;;5001689;28;20238;-65
2021/12/05 03:59:44;;;;;;;0.90;0.73;;;19.30;37.60;;;;;;5000828;28;20472;-65
2021/12/05 04:02:10;;;;;;;0.90;0.80;;;19.20;37.50;;;;;;4998984;28;20449;-65
2021/12/05 04:04:37;;;;;;;0.97;0.90;;;19.20;37.40;;;;;;4997013;28;20446;-65
2021/12/05 04:07:03;;;;;;;1.00;0.90;;;19.20;37.50;;;;;;4998901;28;20338;-65
2021/12/05 04:09:30;;;;;;;1.23;1.00;;;19.20;37.40;;;;;;4999570;28;20442;-64
2021/12/05 04:12:01;;;;;;;1.00;0.90;;;19.20;37.50;;;;;;4998918;28;20452;-64
2021/12/05 04:14:37;;;;;;;1.00;0.80;;;19.20;37.40;;;;;;5000659;28;20485;-64
2021/12/05 04:17:05;;;;;;;0.90;0.80;;;19.20;37.50;;;;;;4998812;28;20461;-64
2021/12/05 04:19:31;;;;;;;1.07;0.97;;;19.20;37.50;;;;;;5001726;28;20941;-64
2021/12/05 04:21:57;;;;;;;1.57;0.80;;;19.20;37.50;;;;;;5001323;28;20953;-65
2021/12/05 04:24:24;;;;;;;1.30;0.70;;;19.20;37.40;;;;;;5000464;28;20332;-65
2021/12/05 04:26:50;;;;;;;1.30;0.87;;;19.20;37.40;;;;;;4999679;28;20453;-65
2021/12/05 04:29:16;;;;;;;1.10;1.00;;;19.20;37.40;;;;;;5003466;28;20802;-64
2021/12/05 04:31:42;;;;;;;1.17;1.00;;;19.20;37.40;;;;;;4993798;28;20443;-65
2021/12/05 04:34:08;;;;;;;1.00;0.80;;;19.20;37.40;;;;;;5001995;28;20457;-64
2021/12/05 04:36:35;;;;;;;0.87;0.70;;;19.20;37.40;;;;;;5000743;28;20240;-65
2021/12/05 04:39:00;;;;;;;1.23;0.80;;;19.20;37.40;;;;;;5000377;28;20424;-65
2021/12/05 04:41:26;;;;;;;0.90;0.80;;;19.20;37.40;;;;;;4999686;28;20460;-66
2021/12/05 04:43:52;;;;;;;0.90;0.80;;;19.20;37.40;;;;;;4999368;28;20219;-64
2021/12/05 04:46:21;;;;;;;1.37;0.80;;;19.20;37.40;;;;;;4999919;28;20232;-65
2021/12/05 04:48:50;;;;;;;2.60;0.80;;;19.20;37.30;;;;;;5000359;28;20946;-65
2021/12/05 04:51:18;;;;;;;0.93;0.80;;;19.20;37.50;;;;;;4999731;28;20821;-65
2021/12/05 04:53:45;;;;;;;1.23;0.90;;;19.20;37.40;;;;;;4989357;28;21132;-65
2021/12/05 04:56:11;;;;;;;1.00;0.90;;;19.20;37.40;;;;;;5001270;28;20496;-65
2021/12/05 04:58:37;;;;;;;1.33;0.77;;;19.20;37.40;;;;;;5003877;28;20481;-65
2021/12/05 05:01:04;;;;;;;0.93;0.83;;;19.20;37.40;;;;;;4996443;28;20560;-65
2021/12/05 05:03:32;;;;;;;0.93;0.83;;;19.20;37.40;;;;;;4997683;28;20442;-64
2021/12/05 05:06:05;;;;;;;0.70;0.60;;;19.20;37.30;;;;;;4996718;28;20466;-64
2021/12/05 05:08:31;;;;;;;1.00;0.87;;;19.20;37.40;;;;;;4998631;28;20451;-64
2021/12/05 05:10:59;;;;;;;1.53;0.90;;;19.20;37.40;;;;;;5000071;28;20693;-65
2021/12/05 05:13:26;;;;;;;0.80;0.70;;;19.20;37.40;;;;;;5002605;28;20679;-65
2021/12/05 05:15:53;;;;;;;1.00;0.90;;;19.20;37.30;;;;;;5002037;28;20448;-64
2021/12/05 05:18:18;;;;;;;0.90;0.70;;;19.20;37.30;;;;;;4997040;28;20458;-64
2021/12/05 05:39:41;;;;;;;0.80;0.80;;;19.30;37.20;;;;;;4995696;28;20549;-64
2021/12/05 05:47:41;;;;;;;0.87;0.87;;;19.30;37.20;;;;;;4996170;28;20827;-65
2021/12/05 05:50:07;;;;;;;1.33;0.70;;;19.30;37.20;;;;;;4998929;28;20449;-64
2021/12/05 05:52:33;;;;;;;0.80;0.60;;;19.30;37.20;;;;;;4997761;28;20544;-65
2021/12/05 05:55:00;;;;;;;0.90;0.70;;;19.30;37.10;;;;;;4996841;28;21011;-66
2021/12/05 05:57:29;;;;;;;0.77;0.60;;;19.30;37.10;;;;;;4999876;28;20231;-65
2021/12/05 06:00:11;;;;;;;0.80;0.70;;;19.30;37.00;;;;;;4997115;28;20445;-65
2021/12/05 06:05:22;;;;;;;0.90;0.70;;;19.30;37.00;;;;;;4995663;28;20475;-66
2021/12/05 06:07:48;;;;;;;0.97;0.80;;;19.30;37.00;;;;;;5003617;28;20454;-65
2021/12/05 06:10:23;;;;;;;0.70;0.60;;;19.30;37.00;;;;;;4999742;28;20490;-65
2021/12/05 06:12:49;;;;;;;0.80;0.63;;;19.30;37.80;;;;;;5000511;28;20244;-64
2021/12/05 06:15:18;;;;;;;0.80;0.70;;;19.30;37.00;;;;;;4998334;28;20446;-65
2021/12/05 06:17:44;;;;;;;1.00;0.70;;;19.30;36.90;;;;;;4999232;28;20474;-65
2021/12/05 06:20:16;;;;;;;1.13;0.80;;;19.30;36.90;;;;;;5006514;28;20552;-65
2021/12/05 06:22:46;;;;;;;1.10;0.70;;;19.30;36.90;;;;;;5004394;28;20449;-64
2021/12/05 06:25:19;;;;;;;0.90;0.70;;;19.30;37.70;;;;;;5001722;28;20533;-65
2021/12/05 06:27:45;;;;;;;0.90;0.83;;;19.30;36.90;;;;;;5004129;28;20477;-65
2021/12/05 06:30:16;;;;;;;1.90;0.70;;;19.30;36.90;;;;;;5001654;28;20441;-65
2021/12/05 06:46:11;;;;;;;0.90;0.80;;;19.30;36.80;;;;;;5005022;28;20449;-64
2021/12/05 06:48:37;;;;;;;0.87;0.73;;;19.30;36.80;;;;;;5001789;28;20452;-65
2021/12/05 06:51:03;;;;;;;0.77;0.77;;;19.30;36.90;;;;;;5000033;28;20978;-62
2021/12/05 06:53:29;;;;;;;1.40;0.70;;;19.30;36.80;;;;;;5002625;28;20670;-67
2021/12/05 06:55:55;;;;;;;0.83;0.70;;;19.30;36.80;;;;;;4992433;28;20471;-67
2021/12/05 06:58:21;;;;;;;0.83;0.70;;;19.30;36.70;;;;;;5002546;28;20243;-67
2021/12/05 07:00:47;;;;;;;0.70;0.70;;;19.30;36.70;;;;;;4996339;28;20235;-66
2021/12/05 07:03:13;;;;;;;0.60;0.60;;;19.30;36.80;;;;;;5000227;28;20584;-66
2021/12/05 07:08:09;;;;;;;0.80;0.60;;;19.30;36.70;;;;;;5001674;28;20821;-66
2021/12/05 07:10:50;;;;;;;0.90;0.77;;;19.30;36.70;;;;;;4998768;28;20420;-66
2021/12/05 07:13:45;;;;;;;2.40;0.80;;;19.30;36.70;;;;;;5003885;28;20446;-65
2021/12/05 07:18:42;;;;;;;2.10;1.03;;;19.30;36.70;;;;;;5003932;28;20461;-66
2021/12/05 07:21:37;;;;;;;0.87;0.70;;;19.40;36.80;;;;;;5000719;28;20489;-65
2021/12/05 07:40:30;;;;;;;0.80;0.60;;;19.40;36.80;;;;;;5002856;28;20997;-67
2021/12/05 07:43:07;;;;;;;1.53;0.80;;;19.40;36.70;;;;;;5003384;28;20523;-67
2021/12/05 07:45:42;;;;;;;1.30;0.90;;;19.40;37.60;;;;;;5002342;28;20438;-66
2021/12/05 07:48:19;;;;;;;1.00;0.80;;;19.40;36.80;;;;;;5001173;28;20438;-67
2021/12/05 07:51:05;;;;;;;1.77;0.77;;;19.40;36.80;;;;;;4997955;28;20441;-67
2021/12/05 07:56:14;;;;;;;1.10;0.73;;;19.40;36.80;;;;;;5002063;28;20429;-66
2021/12/05 08:15:24;;;;;;;1.20;0.80;;;19.40;36.70;;;;;;4981702;28;20480;-66
2021/12/05 08:17:55;;;;;;;1.60;0.70;;;19.40;36.70;;;;;;4981457;28;20471;-66
2021/12/05 08:20:30;;;;;;;1.00;0.80;;;19.40;36.70;;;;;;4975743;28;20903;-66
2021/12/05 08:22:58;;;;;;;1.20;0.90;;;19.40;36.70;;;;;;4983639;28;20462;-67
2021/12/05 08:25:27;;;;;;;1.50;1.03;;;19.40;36.70;;;;;;4979525;28;20459;-66
2021/12/05 08:28:01;;;;;;;4.00;0.80;;;19.40;36.60;;;;;;4982731;28;20429;-65
2021/12/05 08:30:32;;;;;;;1.20;1.10;;;19.50;36.70;;;;;;4983299;28;20437;-66
2021/12/05 08:39:15;;;;;;;1.90;0.97;;;19.40;36.60;;;;;;4982006;28;20534;-66
2021/12/05 09:08:20;;;;;;;0.93;0.70;;;19.40;36.60;;;;;;4982444;28;20753;-66
2021/12/05 10:13:10;;;;;;;1.57;0.90;;;19.60;36.80;;;;;;4980773;28;20294;-68
2021/12/05 10:15:52;;;;;;;3.73;0.90;;;19.60;36.80;;;;;;4999602;28;20456;-66
2021/12/05 10:37:53;;;;;;;3.13;1.17;;;19.60;36.90;;;;;;4994169;28;20496;-64
2021/12/05 10:40:30;;;;;;;1.37;1.10;;;19.60;37.00;;;;;;5002165;28;20453;-65
2021/12/05 10:42:56;;;;;;;4.70;1.40;;;19.70;37.10;;;;;;4981951;28;20541;-65
2021/12/05 10:45:37;;;;;;;1.43;1.30;;;19.70;37.10;;;;;;4998715;28;20454;-65
2021/12/05 10:48:11;;;;;;;1.40;1.00;;;19.70;37.00;;;;;;4997895;28;20436;-64
2021/12/05 10:50:45;;;;;;;1.97;1.00;;;19.70;37.00;;;;;;5002381;28;20445;-65
2021/12/05 10:53:37;;;;;;;2.83;1.20;;;19.70;37.00;;;;;;4999155;28;20844;-65
2021/12/05 10:56:24;;;;;;;2.40;0.97;;;19.70;37.10;;;;;;5000102;28;20420;-65
2021/12/05 10:59:10;;;;;;;1.60;1.10;;;19.70;37.10;;;;;;4995518;28;20462;-65
2021/12/05 11:01:49;;;;;;;1.80;0.90;;;19.70;37.20;;;;;;4994479;28;20486;-67
2021/12/05 11:04:19;;;;;;;1.30;0.80;;;19.70;37.20;;;;;;4997840;28;20990;-71
2021/12/05 11:06:52;;;;;;;1.90;0.90;;;19.70;37.30;;;;;;4995334;28;20482;-67
2021/12/05 11:09:28;;;;;;;1.97;1.20;;;19.70;37.30;;;;;;5003422;28;20556;-66
2021/12/05 11:12:05;;;;;;;1.60;0.90;;;19.70;37.30;;;;;;4999473;28;20454;-65
2021/12/05 11:14:34;;;;;;;1.43;0.90;;;19.70;37.30;;;;;;4999130;28;20442;-68
2021/12/05 11:17:07;;;;;;;1.40;1.23;;;19.70;37.30;;;;;;5000390;28;20550;-67
2021/12/05 11:19:43;;;;;;;1.17;0.90;;;19.70;37.40;;;;;;5003648;28;20518;-67
2021/12/05 11:22:21;;;;;;;1.83;0.87;;;19.70;37.40;;;;;;5000751;28;20472;-65
2021/12/05 11:24:57;;;;;;;1.30;0.90;;;19.70;37.30;;;;;;5001985;28;20441;-69
2021/12/05 11:27:28;;;;;;;1.00;0.90;;;19.80;37.50;;;;;;4998896;28;20844;-64
2021/12/05 11:30:00;;;;;;;2.73;1.00;;;19.70;37.30;;;;;;5003520;28;20450;-66
2021/12/05 11:32:36;;;;;;;1.00;0.90;;;19.80;37.40;;;;;;5006274;28;20454;-68
2021/12/05 11:35:25;;;;;;;0.80;0.80;;;19.70;37.30;;;;;;5003818;28;20445;-66
2021/12/05 11:37:53;;;;;;;1.57;1.00;;;19.80;37.40;;;;;;5001382;28;20629;-68
2021/12/05 11:40:19;;;;;;;5.63;1.47;;;19.80;37.40;;;;;;4999238;28;20970;-67
2021/12/05 11:43:04;;;;;;;16.13;2.43;;;19.80;37.40;;;;;;4998845;28;20505;-65
2021/12/05 11:45:31;;;;;;;2.03;1.30;;;19.80;37.30;;;;;;5004750;28;20454;-65
2021/12/05 11:47:58;;;;;;;6.10;1.43;;;19.80;37.40;;;;;;5002188;28;20472;-67
2021/12/05 11:50:35;;;;;;;10.50;2.27;;;19.80;37.50;;;;;;5002368;28;20449;-70
2021/12/05 11:53:01;;;;;;;6.87;1.90;;;19.80;37.50;;;;;;5002961;28;20456;-64
2021/12/05 11:55:30;;;;;;;15.03;1.87;;;19.80;37.50;;;;;;5000759;28;20450;-63
2021/12/05 11:57:56;;;;;;;5.67;2.80;;;19.80;37.50;;;;;;5000278;28;20462;-61
2021/12/05 12:00:24;;;;;;;4.10;2.00;;;19.80;37.50;;;;;;5003212;28;20793;-61
2021/12/05 12:02:50;;;;;;;4.53;2.40;;;19.80;37.40;;;;;;5003789;28;20271;-61
2021/12/05 12:05:24;;;;;;;12.33;2.50;;;19.80;37.40;;;;;;5000137;28;20460;-61
2021/12/05 12:07:50;;;;;;;14.87;2.53;;;19.80;37.50;;;;;;4998534;28;20578;-61
2021/12/05 12:10:39;;;;;;;9.10;2.03;;;19.80;37.50;;;;;;5005167;28;20485;-61
2021/12/05 12:13:08;;;;;;;4.43;2.63;;;19.80;37.50;;;;;;4995848;28;20212;-60
2021/12/05 12:15:36;;;;;;;8.57;2.70;;;19.80;37.50;;;;;;4983367;28;20453;-60
2021/12/05 12:18:12;;;;;;;3.33;1.60;;;19.80;37.50;;;;;;5002803;28;20980;-60
2021/12/05 12:20:40;;;;;;;8.40;1.70;;;19.80;37.60;;;;;;5002866;28;20445;-61
2021/12/05 12:23:07;;;;;;;6.17;2.17;;;19.80;37.60;;;;;;5000883;28;20437;-60
2021/12/05 12:25:37;;;;;;;2.67;2.00;;;19.80;37.60;;;;;;4997096;28;20934;-61
2021/12/05 12:28:04;;;;;;;4.27;1.83;;;19.80;37.60;;;;;;5001373;28;20434;-60
2021/12/05 12:30:33;;;;;;;6.50;2.43;;;19.80;37.60;;;;;;4999421;28;20465;-60
2021/12/05 12:33:13;;;;;;;13.17;2.43;;;19.80;37.70;;;;;;5000013;28;20861;-60
2021/12/05 12:35:39;;;;;;;3.10;1.77;;;19.80;37.60;;;;;;4999179;28;20478;-60
2021/12/05 12:38:09;;;;;;;2.10;1.63;;;19.80;37.60;;;;;;5005881;28;20536;-59
2021/12/05 12:40:46;;;;;;;4.50;1.83;;;19.80;37.60;;;;;;4999950;28;20588;-59
2021/12/05 12:43:48;;;;;;;6.00;1.90;;;19.80;37.60;;;;;;4999270;28;20454;-61
2021/12/05 12:46:24;;;;;;;3.10;1.33;;;19.80;37.60;;;;;;5002352;28;20970;-60
2021/12/05 12:49:07;;;;;;;4.63;3.10;;;19.80;37.70;;;;;;5000184;28;20519;-59
2021/12/05 12:51:37;;;;;;;6.40;1.50;;;19.80;37.70;;;;;;4998361;28;20451;-59
2021/12/05 12:54:14;;;;;;;8.73;2.00;;;19.80;37.70;;;;;;5000402;28;20845;-59
2021/12/05 12:56:42;;;;;;;3.90;1.57;;;19.80;37.70;;;;;;4996879;28;20490;-59
2021/12/05 12:59:15;;;;;;;4.50;1.87;;;19.80;37.70;;;;;;5000872;28;20446;-59
2021/12/05 13:10:02;;;;;;;2.43;1.50;;;19.80;37.80;;;;;;5001518;28;20923;-59
2021/12/05 13:12:40;;;;;;;4.40;1.30;;;19.80;37.80;;;;;;4998184;28;21047;-59
2021/12/05 13:15:17;;;;;;;2.23;1.50;;;19.80;37.90;;;;;;5001153;28;20500;-59
2021/12/05 13:18:04;;;;;;;3.33;1.30;;;19.80;37.80;;;;;;4999325;28;20461;-59
2021/12/05 13:20:42;;;;;;;1.67;1.20;;;19.80;37.80;;;;;;4994380;28;20446;-59
2021/12/05 13:23:15;;;;;;;4.67;1.43;;;19.80;37.90;;;;;;4998306;28;20424;-60
2021/12/05 13:26:23;;;;;;;1.30;1.20;;;19.80;37.90;;;;;;5000246;28;20910;-59
2021/12/05 13:28:55;;;;;;;3.40;1.80;;;19.80;37.90;;;;;;4999256;28;20508;-59
2021/12/05 13:31:33;;;;;;;1.87;1.77;;;19.80;37.80;;;;;;5000944;28;20481;-58
2021/12/05 13:34:20;;;;;;;4.43;1.30;;;19.90;37.80;;;;;;4998334;28;20797;-59
2021/12/05 13:37:13;;;;;;;2.53;1.27;;;19.90;37.70;;;;;;4995198;28;20465;-59
2021/12/05 13:39:47;;;;;;;1.93;1.20;;;19.90;37.60;;;;;;4981693;28;20459;-58
2021/12/05 13:42:26;;;;;;;2.97;1.40;;;19.90;37.60;;;;;;5001017;28;20953;-59
2021/12/05 13:45:04;;;;;;;1.30;1.10;;;20.00;37.60;;;;;;5000303;28;20461;-58
2021/12/05 13:47:32;;;;;;;3.80;1.50;;;20.00;37.60;;;;;;5001762;28;20461;-58
2021/12/05 13:50:22;;;;;;;3.60;1.67;;;20.00;37.60;;;;;;4999422;28;20457;-58
2021/12/05 13:52:49;;;;;;;2.00;1.30;;;20.00;37.60;;;;;;4990482;28;20449;-58
2021/12/05 13:55:35;;;;;;;1.90;1.13;;;20.00;37.60;;;;;;4997447;28;20457;-58
2021/12/05 13:58:18;;;;;;;1.50;1.27;;;20.00;37.60;;;;;;5000915;28;20472;-58
2021/12/05 14:00:59;;;;;;;3.80;1.60;;;20.00;37.70;;;;;;4997932;28;20574;-58
2021/12/05 14:03:50;;;;;;;1.73;1.40;;;20.00;37.70;;;;;;4998191;28;20543;-57
2021/12/05 14:06:23;;;;;;;2.27;1.30;;;20.00;37.70;;;;;;4995696;28;20462;-58
2021/12/05 14:08:50;;;;;;;3.90;1.33;;;20.00;37.70;;;;;;5000981;28;20446;-57
2021/12/05 14:11:15;;;;;;;1.50;1.07;;;20.00;37.80;;;;;;4986715;28;20455;-58
2021/12/05 14:13:41;;;;;;;2.40;1.40;;;20.00;37.80;;;;;;4999108;28;20458;-58
2021/12/05 14:16:07;;;;;;;1.50;1.03;;;19.90;37.70;;;;;;4997956;28;20328;-58
2021/12/05 14:18:33;;;;;;;1.83;1.30;;;20.00;37.80;;;;;;4998144;28;20232;-58
2021/12/05 14:21:13;;;;;;;4.40;1.70;;;20.00;37.70;;;;;;4998141;28;20252;-58
2021/12/05 14:23:39;;;;;;;2.37;1.70;;;20.00;37.80;;;;;;4997525;28;20227;-58
2021/12/05 14:26:16;;;;;;;1.20;1.00;;;19.90;37.70;;;;;;5002390;28;20939;-58
2021/12/05 14:28:41;;;;;;;1.40;1.20;;;20.00;37.80;;;;;;4999910;28;20220;-58
2021/12/05 14:31:07;;;;;;;2.10;1.23;;;20.00;37.80;;;;;;4999085;28;20641;-58
2021/12/05 14:33:48;;;;;;;1.47;1.10;;;19.90;37.80;;;;;;4996140;28;20229;-58
2021/12/05 14:36:28;;;;;;;4.43;1.20;;;19.90;37.90;;;;;;4996936;28;20231;-58
2021/12/05 14:39:23;;;;;;;3.73;1.30;;;19.90;38.60;;;;;;4993786;28;20504;-58
2021/12/05 14:41:53;;;;;;;9.93;1.60;;;20.00;37.90;;;;;;4985940;28;20492;-57
2021/12/05 14:44:21;;;;;;;1.70;1.20;;;19.90;37.90;;;;;;5000315;28;20479;-58
2021/12/05 14:46:52;;;;;;;1.33;1.23;;;19.90;37.90;;;;;;5006053;28;20484;-58
2021/12/05 14:49:20;;;;;;;1.30;1.03;;;19.90;38.70;;;;;;5001605;28;20556;-60
2021/12/05 14:51:46;;;;;;;1.50;1.00;;;19.90;37.90;;;;;;5003554;28;20442;-60
2021/12/05 14:54:18;;;;;;;2.83;1.57;;;19.90;38.00;;;;;;5003894;28;20537;-60
2021/12/05 14:56:44;;;;;;;1.40;1.20;;;19.90;37.90;;;;;;4998478;28;20240;-59
2021/12/05 14:59:13;;;;;;;1.33;1.07;;;19.90;37.90;;;;;;5002742;28;20771;-58
2021/12/05 15:01:46;;;;;;;1.90;1.40;;;19.90;37.90;;;;;;5001166;28;20239;-58
2021/12/05 15:04:13;;;;;;;1.23;1.10;;;19.90;38.00;;;;;;5000616;28;21014;-59
2021/12/05 15:06:44;;;;;;;1.30;1.20;;;19.90;38.00;;;;;;5004118;28;20485;-58
2021/12/05 15:09:27;;;;;;;2.23;1.30;;;19.90;38.00;;;;;;5002108;28;20453;-58
2021/12/05 15:12:00;;;;;;;2.40;1.10;;;19.90;38.00;;;;;;5000911;28;20958;-59
2021/12/05 15:14:27;;;;;;;1.03;0.83;;;19.90;38.00;;;;;;5003360;28;20480;-59
2021/12/05 15:16:59;;;;;;;3.03;1.00;;;19.90;38.00;;;;;;5002230;28;20480;-59
2021/12/05 15:19:25;;;;;;;1.50;1.33;;;19.90;38.10;;;;;;5005309;28;20453;-58
2021/12/05 15:21:51;;;;;;;3.30;1.20;;;19.80;38.00;;;;;;4989959;28;20458;-58
2021/12/05 15:24:19;;;;;;;2.00;1.00;;;19.80;38.00;;;;;;5004580;28;20456;-59
2021/12/05 15:26:45;;;;;;;1.03;0.90;;;19.90;38.10;;;;;;5000422;28;20239;-58
2021/12/05 15:29:10;;;;;;;1.63;1.03;;;19.80;38.00;;;;;;4999726;28;20945;-58
2021/12/05 15:31:39;;;;;;;2.03;1.20;;;19.80;38.00;;;;;;4999760;28;20316;-58
2021/12/05 15:34:26;;;;;;;1.20;1.10;;;19.80;38.10;;;;;;5002667;28;20217;-59
2021/12/05 15:36:54;;;;;;;1.50;1.20;;;19.80;38.10;;;;;;5003506;28;20461;-59
2021/12/05 15:39:25;;;;;;;1.90;1.17;;;19.80;38.10;;;;;;5001077;28;20472;-58
2021/12/05 15:41:52;;;;;;;1.43;1.10;;;19.80;38.10;;;;;;5002514;28;20470;-59
2021/12/05 15:44:29;;;;;;;2.27;1.07;;;19.80;38.80;;;;;;5002767;28;20480;-59
2021/12/05 15:47:06;;;;;;;1.93;1.07;;;19.90;38.10;;;;;;5000298;28;20454;-58
2021/12/05 15:50:12;;;;;;;2.43;1.20;;;19.90;38.10;;;;;;5000743;28;20453;-58
2021/12/05 15:52:57;;;;;;;1.47;1.07;;;19.90;38.10;;;;;;4991446;28;20438;-59
2021/12/05 15:55:30;;;;;;;2.00;0.97;;;19.80;38.00;;;;;;4998551;28;20442;-58
2021/12/05 15:58:02;;;;;;;1.10;1.00;;;19.80;38.00;;;;;;5002466;28;20472;-59
2021/12/05 16:00:32;;;;;;;1.20;0.90;;;19.90;38.20;;;;;;4984431;28;20456;-59
2021/12/05 16:03:18;;;;;;;1.80;1.20;;;19.90;38.20;;;;;;5000585;28;20505;-58
2021/12/05 16:05:45;;;;;;;1.40;1.00;;;19.90;38.10;;;;;;4999092;28;20492;-59
2021/12/05 16:08:14;;;;;;;1.97;1.30;;;19.80;38.10;;;;;;4999872;28;20572;-58
2021/12/05 16:10:51;;;;;;;1.23;1.13;;;19.80;38.10;;;;;;5003423;28;20445;-58
2021/12/05 16:13:20;;;;;;;1.23;1.13;;;19.80;38.10;;;;;;4998705;28;20454;-59
2021/12/05 16:15:48;;;;;;;1.30;1.20;;;19.80;38.00;;;;;;5000756;28;20445;-59
2021/12/05 16:18:15;;;;;;;2.70;1.10;;;19.80;38.10;;;;;;5002778;28;21337;-59
2021/12/05 16:20:50;;;;;;;1.30;1.20;;;19.90;38.20;;;;;;4998880;28;20483;-58
2021/12/05 16:23:19;;;;;;;0.90;0.90;;;19.90;38.20;;;;;;4997603;28;20441;-59
2021/12/05 16:26:03;;;;;;;2.23;1.20;;;19.80;38.10;;;;;;4998522;28;20446;-59
2021/12/05 16:28:31;;;;;;;4.87;1.23;;;19.90;38.10;;;;;;4999322;28;20436;-58
2021/12/05 16:31:18;;;;;;;1.83;1.20;;;19.80;38.00;;;;;;4996360;28;20459;-58
2021/12/05 16:33:51;;;;;;;1.23;1.10;;;19.80;38.10;;;;;;4997303;28;20500;-58
2021/12/05 16:36:19;;;;;;;2.20;1.00;;;19.80;38.10;;;;;;5001643;28;20817;-58
2021/12/05 16:38:50;;;;;;;1.50;1.10;;;19.80;38.00;;;;;;4998620;28;20939;-58
2021/12/05 16:41:32;;;;;;;1.43;1.23;;;19.80;38.10;;;;;;4998718;28;20825;-58
2021/12/05 16:44:03;;;;;;;1.90;1.33;;;19.80;38.00;;;;;;5000738;28;20450;-58
2021/12/05 16:46:33;;;;;;;1.83;1.20;;;19.80;38.00;;;;;;4995998;28;20462;-58
2021/12/05 16:49:02;;;;;;;1.30;1.20;;;19.80;38.00;;;;;;5002016;28;20462;-58
2021/12/05 16:51:30;;;;;;;1.40;1.30;;;19.80;38.00;;;;;;4997128;28;20446;-58
2021/12/05 16:54:03;;;;;;;1.80;1.20;;;19.80;38.00;;;;;;5002556;28;20454;-58
2021/12/05 16:56:39;;;;;;;1.80;1.20;;;19.80;38.00;;;;;;5002426;28;20998;-58
2021/12/05 16:59:15;;;;;;;1.27;1.17;;;19.80;38.00;;;;;;4999694;28;20453;-58
2021/12/05 17:01:41;;;;;;;1.53;1.40;;;19.80;38.00;;;;;;5000198;28;20436;-58
2021/12/05 17:04:08;;;;;;;1.10;1.00;;;19.80;38.00;;;;;;4997318;28;20959;-58
2021/12/05 17:06:53;;;;;;;3.37;1.83;;;19.80;38.10;;;;;;5001252;28;20251;-57
2021/12/05 17:09:19;;;;;;;1.50;1.40;;;19.80;38.10;;;;;;4995499;28;20449;-58
2021/12/05 17:11:45;;;;;;;1.23;1.13;;;19.80;38.90;;;;;;5000766;28;20448;-58
2021/12/05 17:14:23;;;;;;;1.57;1.10;;;19.80;38.10;;;;;;4999023;28;20813;-58
2021/12/05 17:16:49;;;;;;;1.23;1.13;;;19.80;38.10;;;;;;5000010;28;20267;-58
2021/12/05 17:19:18;;;;;;;1.73;1.10;;;19.80;38.10;;;;;;4998627;28;20446;-58
2021/12/05 17:21:49;;;;;;;1.30;1.20;;;19.80;38.10;;;;;;5001846;28;20430;-58
2021/12/05 17:24:23;;;;;;;1.77;1.43;;;19.90;38.20;;;;;;4998004;28;20449;-58
2021/12/05 17:26:53;;;;;;;2.40;1.20;;;19.80;38.10;;;;;;4997764;28;20491;-58
2021/12/05 17:29:29;;;;;;;1.47;1.37;;;19.80;38.10;;;;;;5000440;28;20456;-58
2021/12/05 17:32:12;;;;;;;1.60;1.20;;;19.90;38.20;;;;;;4999052;28;20504;-58
2021/12/05 17:35:04;;;;;;;1.60;1.50;;;19.80;38.10;;;;;;5003099;28;20471;-57
2021/12/05 17:37:32;;;;;;;1.47;1.13;;;19.90;38.20;;;;;;4995496;28;20569;-56
2021/12/05 17:40:01;;;;;;;1.40;1.20;;;19.80;38.10;;;;;;4997825;28;20460;-58
2021/12/05 17:42:28;;;;;;;1.20;1.10;;;19.80;38.10;;;;;;4999388;28;20899;-58
2021/12/05 17:44:59;;;;;;;2.30;1.60;;;19.90;38.30;;;;;;4997786;28;20496;-58
2021/12/05 17:47:27;;;;;;;1.50;1.30;;;19.90;38.20;;;;;;4998261;28;20803;-58
2021/12/05 17:49:56;;;;;;;1.70;1.30;;;19.90;38.20;;;;;;5001341;28;20451;-58
2021/12/05 17:52:24;;;;;;;2.07;1.40;;;19.90;38.20;;;;;;4995490;28;20446;-57
2021/12/05 17:54:56;;;;;;;2.07;1.33;;;19.90;38.20;;;;;;5000807;28;20454;-57
2021/12/05 17:57:41;;;;;;;1.80;1.70;;;19.90;38.20;;;;;;4999614;28;20458;-58
2021/12/05 18:00:35;;;;;;;1.50;1.40;;;19.90;38.20;;;;;;4999478;28;20438;-57
2021/12/05 18:03:05;;;;;;;1.77;1.67;;;19.90;38.20;;;;;;5001745;28;20445;-58
2021/12/05 18:05:43;;;;;;;1.33;1.23;;;19.90;38.20;;;;;;5001260;28;20449;-58
2021/12/05 18:08:22;;;;;;;2.70;1.43;;;19.90;38.20;;;;;;4998302;28;20852;-57
2021/12/05 18:10:52;;;;;;;1.37;1.27;;;19.90;38.20;;;;;;5000114;28;20450;-58
2021/12/05 18:13:23;;;;;;;2.77;1.37;;;19.90;38.30;;;;;;5001039;28;20449;-57
2021/12/05 18:15:58;;;;;;;3.87;1.50;;;19.90;38.20;;;;;;4999757;28;20443;-58
2021/12/05 18:18:31;;;;;;;1.60;1.50;;;19.90;38.20;;;;;;5001097;28;20461;-57
2021/12/05 18:20:59;;;;;;;1.67;1.43;;;19.90;38.20;;;;;;5005590;28;20450;-57
2021/12/05 18:23:26;;;;;;;2.70;1.37;;;19.90;38.20;;;;;;5001125;28;20446;-57
2021/12/05 18:25:52;;;;;;;1.87;1.77;;;19.90;38.20;;;;;;5000162;28;20438;-58
2021/12/05 18:28:18;;;;;;;1.97;1.67;;;19.90;38.30;;;;;;5003904;28;20525;-57
2021/12/05 18:30:44;;;;;;;1.60;1.50;;;19.90;38.30;;;;;;5003544;28;20481;-57
2021/12/05 18:33:11;;;;;;;1.47;1.37;;;19.90;38.30;;;;;;5002432;28;20516;-58